sensor_id;sensor_type;location;lat;lon;timestamp;P1;durP1;ratioP1;P2;durP2;ratioP2
49235;SDS011;35067;48.134;8.378;2022-12-11T00:01:53;14.33;;;7.60;;
49235;SDS011;35067;48.134;8.378;2022-12-11T00:03:53;17.07;;;7.13;;
49235;SDS011;35067;48.134;8.378;2022-12-11T00:05:54;12.30;;;6.53;;
49235;SDS011;35067;48.134;8.378;2022-12-11T00:07:55;14.40;;;6.60;;
49235;SDS011;35067;48.134;8.378;2022-12-11T00:09:56;12.80;;;6.60;;
49235;SDS011;35067;48.134;8.378;2022-12-11T00:11:57;12.60;;;6.33;;
49235;SDS011;35067;48.134;8.378;2022-12-11T00:13:57;15.70;;;7.23;;
49235;SDS011;35067;48.134;8.378;2022-12-11T00:15:58;14.63;;;7.37;;
49235;SDS011;35067;48.134;8.378;2022-12-11T00:17:59;13.20;;;6.47;;
49235;SDS011;35067;48.134;8.378;2022-12-11T00:20:00;12.07;;;6.13;;
49235;SDS011;35067;48.134;8.378;2022-12-11T00:22:00;11.33;;;5.90;;
49235;SDS011;35067;48.134;8.378;2022-12-11T00:24:01;14.57;;;6.30;;
49235;SDS011;35067;48.134;8.378;2022-12-11T00:26:06;14.27;;;5.93;;
49235;SDS011;35067;48.134;8.378;2022-12-11T00:28:11;13.10;;;6.13;;
49235;SDS011;35067;48.134;8.378;2022-12-11T00:30:14;11.33;;;5.63;;
49235;SDS011;35067;48.134;8.378;2022-12-11T00:32:15;12.07;;;5.47;;
49235;SDS011;35067;48.134;8.378;2022-12-11T00:34:16;13.30;;;5.70;;
49235;SDS011;35067;48.134;8.378;2022-12-11T00:36:20;14.60;;;6.70;;
49235;SDS011;35067;48.134;8.378;2022-12-11T00:38:24;13.53;;;6.57;;
49235;SDS011;35067;48.134;8.378;2022-12-11T00:40:24;12.87;;;7.03;;
49235;SDS011;35067;48.134;8.378;2022-12-11T00:42:25;15.27;;;6.53;;
49235;SDS011;35067;48.134;8.378;2022-12-11T00:44:26;15.13;;;6.83;;
49235;SDS011;35067;48.134;8.378;2022-12-11T00:46:26;14.30;;;6.40;;
49235;SDS011;35067;48.134;8.378;2022-12-11T00:48:27;14.50;;;6.90;;
49235;SDS011;35067;48.134;8.378;2022-12-11T00:50:28;11.40;;;6.13;;
49235;SDS011;35067;48.134;8.378;2022-12-11T00:52:29;16.40;;;7.13;;
49235;SDS011;35067;48.134;8.378;2022-12-11T00:54:29;12.37;;;6.30;;
49235;SDS011;35067;48.134;8.378;2022-12-11T00:56:30;14.10;;;6.30;;
49235;SDS011;35067;48.134;8.378;2022-12-11T00:58:31;14.97;;;6.80;;
49235;SDS011;35067;48.134;8.378;2022-12-11T01:00:31;12.60;;;6.70;;
49235;SDS011;35067;48.134;8.378;2022-12-11T01:02:33;15.90;;;6.80;;
49235;SDS011;35067;48.134;8.378;2022-12-11T01:04:34;16.70;;;7.40;;
49235;SDS011;35067;48.134;8.378;2022-12-11T01:06:36;14.27;;;6.87;;
49235;SDS011;35067;48.134;8.378;2022-12-11T01:08:36;14.17;;;6.77;;
49235;SDS011;35067;48.134;8.378;2022-12-11T01:10:37;16.00;;;8.47;;
49235;SDS011;35067;48.134;8.378;2022-12-11T01:12:37;15.23;;;7.47;;
49235;SDS011;35067;48.134;8.378;2022-12-11T01:14:38;17.00;;;8.13;;
49235;SDS011;35067;48.134;8.378;2022-12-11T01:16:39;12.53;;;6.47;;
49235;SDS011;35067;48.134;8.378;2022-12-11T01:18:40;22.47;;;7.83;;
49235;SDS011;35067;48.134;8.378;2022-12-11T01:20:41;11.27;;;7.10;;
49235;SDS011;35067;48.134;8.378;2022-12-11T01:22:42;24.10;;;13.63;;
49235;SDS011;35067;48.134;8.378;2022-12-11T01:24:43;22.77;;;10.90;;
49235;SDS011;35067;48.134;8.378;2022-12-11T01:26:43;24.27;;;10.47;;
49235;SDS011;35067;48.134;8.378;2022-12-11T01:28:44;20.73;;;10.63;;
49235;SDS011;35067;48.134;8.378;2022-12-11T01:30:48;20.03;;;9.13;;
49235;SDS011;35067;48.134;8.378;2022-12-11T01:32:49;17.10;;;9.53;;
49235;SDS011;35067;48.134;8.378;2022-12-11T01:34:49;21.30;;;8.90;;
49235;SDS011;35067;48.134;8.378;2022-12-11T01:36:51;16.77;;;7.17;;
49235;SDS011;35067;48.134;8.378;2022-12-11T01:38:51;12.90;;;7.37;;
49235;SDS011;35067;48.134;8.378;2022-12-11T01:40:53;16.00;;;7.63;;
49235;SDS011;35067;48.134;8.378;2022-12-11T01:42:54;14.77;;;7.63;;
49235;SDS011;35067;48.134;8.378;2022-12-11T01:47:20;14.50;;;7.80;;
49235;SDS011;35067;48.134;8.378;2022-12-11T01:49:22;17.10;;;7.93;;
49235;SDS011;35067;48.134;8.378;2022-12-11T01:51:25;16.47;;;8.57;;
49235;SDS011;35067;48.134;8.378;2022-12-11T01:53:30;16.67;;;8.40;;
49235;SDS011;35067;48.134;8.378;2022-12-11T01:55:34;15.43;;;8.53;;
49235;SDS011;35067;48.134;8.378;2022-12-11T01:57:38;15.60;;;7.07;;
49235;SDS011;35067;48.134;8.378;2022-12-11T01:59:42;15.83;;;7.97;;
49235;SDS011;35067;48.134;8.378;2022-12-11T02:01:48;17.20;;;8.47;;
49235;SDS011;35067;48.134;8.378;2022-12-11T02:03:56;15.00;;;7.50;;
49235;SDS011;35067;48.134;8.378;2022-12-11T02:05:58;14.20;;;7.90;;
49235;SDS011;35067;48.134;8.378;2022-12-11T02:08:02;12.27;;;6.93;;
49235;SDS011;35067;48.134;8.378;2022-12-11T02:10:04;15.27;;;7.70;;
49235;SDS011;35067;48.134;8.378;2022-12-11T02:14:27;11.90;;;6.80;;
49235;SDS011;35067;48.134;8.378;2022-12-11T02:16:59;10.90;;;5.93;;
49235;SDS011;35067;48.134;8.378;2022-12-11T02:19:17;15.37;;;7.43;;
49235;SDS011;35067;48.134;8.378;2022-12-11T02:21:42;11.97;;;6.20;;
49235;SDS011;35067;48.134;8.378;2022-12-11T02:29:57;12.57;;;6.13;;
49235;SDS011;35067;48.134;8.378;2022-12-11T02:32:09;13.47;;;7.07;;
49235;SDS011;35067;48.134;8.378;2022-12-11T02:36:32;14.07;;;7.03;;
49235;SDS011;35067;48.134;8.378;2022-12-11T02:38:40;13.93;;;6.70;;
49235;SDS011;35067;48.134;8.378;2022-12-11T02:40:49;12.73;;;6.73;;
49235;SDS011;35067;48.134;8.378;2022-12-11T02:42:54;13.53;;;6.70;;
49235;SDS011;35067;48.134;8.378;2022-12-11T02:44:58;14.20;;;7.47;;
49235;SDS011;35067;48.134;8.378;2022-12-11T02:47:00;17.10;;;7.37;;
49235;SDS011;35067;48.134;8.378;2022-12-11T02:49:04;12.70;;;6.70;;
49235;SDS011;35067;48.134;8.378;2022-12-11T02:51:07;11.77;;;5.80;;
49235;SDS011;35067;48.134;8.378;2022-12-11T02:53:10;12.57;;;7.00;;
49235;SDS011;35067;48.134;8.378;2022-12-11T02:55:15;12.77;;;6.43;;
49235;SDS011;35067;48.134;8.378;2022-12-11T02:59:28;12.27;;;5.63;;
49235;SDS011;35067;48.134;8.378;2022-12-11T03:01:37;13.80;;;7.17;;
49235;SDS011;35067;48.134;8.378;2022-12-11T03:03:38;13.70;;;7.13;;
49235;SDS011;35067;48.134;8.378;2022-12-11T03:05:38;15.87;;;6.93;;
49235;SDS011;35067;48.134;8.378;2022-12-11T03:07:41;13.47;;;8.07;;
49235;SDS011;35067;48.134;8.378;2022-12-11T03:09:43;12.63;;;6.90;;
49235;SDS011;35067;48.134;8.378;2022-12-11T03:11:46;16.60;;;6.77;;
49235;SDS011;35067;48.134;8.378;2022-12-11T03:13:47;14.83;;;7.43;;
49235;SDS011;35067;48.134;8.378;2022-12-11T03:15:56;17.03;;;8.10;;
49235;SDS011;35067;48.134;8.378;2022-12-11T03:18:12;15.23;;;6.73;;
49235;SDS011;35067;48.134;8.378;2022-12-11T03:20:59;14.80;;;7.50;;
49235;SDS011;35067;48.134;8.378;2022-12-11T03:25:37;13.33;;;6.10;;
49235;SDS011;35067;48.134;8.378;2022-12-11T03:27:54;11.90;;;6.40;;
49235;SDS011;35067;48.134;8.378;2022-12-11T03:30:00;16.03;;;7.43;;
49235;SDS011;35067;48.134;8.378;2022-12-11T03:32:11;14.13;;;6.93;;
49235;SDS011;35067;48.134;8.378;2022-12-11T03:34:22;17.50;;;6.40;;
49235;SDS011;35067;48.134;8.378;2022-12-11T03:36:31;14.80;;;6.67;;
49235;SDS011;35067;48.134;8.378;2022-12-11T03:38:40;14.33;;;7.17;;
49235;SDS011;35067;48.134;8.378;2022-12-11T03:40:52;16.27;;;7.23;;
49235;SDS011;35067;48.134;8.378;2022-12-11T03:42:55;12.70;;;6.27;;
49235;SDS011;35067;48.134;8.378;2022-12-11T03:44:57;15.73;;;6.27;;
49235;SDS011;35067;48.134;8.378;2022-12-11T03:47:02;14.43;;;6.60;;
49235;SDS011;35067;48.134;8.378;2022-12-11T03:49:08;13.40;;;7.70;;
49235;SDS011;35067;48.134;8.378;2022-12-11T03:51:15;15.43;;;7.10;;
49235;SDS011;35067;48.134;8.378;2022-12-11T03:53:17;13.67;;;7.73;;
49235;SDS011;35067;48.134;8.378;2022-12-11T03:55:20;16.50;;;7.13;;
49235;SDS011;35067;48.134;8.378;2022-12-11T03:57:21;11.70;;;6.23;;
49235;SDS011;35067;48.134;8.378;2022-12-11T03:59:28;15.10;;;7.35;;
49235;SDS011;35067;48.134;8.378;2022-12-11T04:01:29;16.70;;;7.50;;
49235;SDS011;35067;48.134;8.378;2022-12-11T04:03:29;21.60;;;8.57;;
49235;SDS011;35067;48.134;8.378;2022-12-11T04:05:30;19.50;;;8.30;;
49235;SDS011;35067;48.134;8.378;2022-12-11T04:07:31;18.60;;;7.23;;
49235;SDS011;35067;48.134;8.378;2022-12-11T04:09:31;19.53;;;9.37;;
49235;SDS011;35067;48.134;8.378;2022-12-11T04:11:33;17.47;;;7.97;;
49235;SDS011;35067;48.134;8.378;2022-12-11T04:13:33;15.23;;;7.43;;
49235;SDS011;35067;48.134;8.378;2022-12-11T04:15:34;15.40;;;7.53;;
49235;SDS011;35067;48.134;8.378;2022-12-11T04:17:36;13.53;;;6.97;;
49235;SDS011;35067;48.134;8.378;2022-12-11T04:19:55;13.65;;;7.22;;
49235;SDS011;35067;48.134;8.378;2022-12-11T04:22:15;20.47;;;8.10;;
49235;SDS011;35067;48.134;8.378;2022-12-11T04:24:36;16.63;;;6.83;;
49235;SDS011;35067;48.134;8.378;2022-12-11T04:26:37;13.18;;;6.70;;
49235;SDS011;35067;48.134;8.378;2022-12-11T04:28:38;14.97;;;7.50;;
49235;SDS011;35067;48.134;8.378;2022-12-11T04:30:40;17.67;;;7.30;;
49235;SDS011;35067;48.134;8.378;2022-12-11T04:32:40;15.13;;;6.17;;
49235;SDS011;35067;48.134;8.378;2022-12-11T04:34:41;15.63;;;7.00;;
49235;SDS011;35067;48.134;8.378;2022-12-11T04:36:42;16.20;;;8.20;;
49235;SDS011;35067;48.134;8.378;2022-12-11T04:38:43;14.70;;;6.80;;
49235;SDS011;35067;48.134;8.378;2022-12-11T04:40:43;14.47;;;7.30;;
49235;SDS011;35067;48.134;8.378;2022-12-11T04:42:44;15.07;;;7.17;;
49235;SDS011;35067;48.134;8.378;2022-12-11T04:44:45;15.17;;;6.47;;
49235;SDS011;35067;48.134;8.378;2022-12-11T04:46:46;13.70;;;6.03;;
49235;SDS011;35067;48.134;8.378;2022-12-11T04:48:47;14.87;;;7.00;;
49235;SDS011;35067;48.134;8.378;2022-12-11T04:50:48;14.20;;;6.23;;
49235;SDS011;35067;48.134;8.378;2022-12-11T04:52:49;13.70;;;6.87;;
49235;SDS011;35067;48.134;8.378;2022-12-11T04:54:49;15.53;;;6.43;;
49235;SDS011;35067;48.134;8.378;2022-12-11T04:56:50;12.47;;;5.97;;
49235;SDS011;35067;48.134;8.378;2022-12-11T04:58:51;13.13;;;5.70;;
49235;SDS011;35067;48.134;8.378;2022-12-11T05:00:52;13.20;;;5.83;;
49235;SDS011;35067;48.134;8.378;2022-12-11T05:02:53;14.43;;;6.32;;
49235;SDS011;35067;48.134;8.378;2022-12-11T05:04:53;10.97;;;5.20;;
49235;SDS011;35067;48.134;8.378;2022-12-11T05:06:54;15.20;;;6.10;;
49235;SDS011;35067;48.134;8.378;2022-12-11T05:08:55;9.77;;;4.63;;
49235;SDS011;35067;48.134;8.378;2022-12-11T05:10:56;12.50;;;5.93;;
49235;SDS011;35067;48.134;8.378;2022-12-11T05:12:58;13.95;;;6.18;;
49235;SDS011;35067;48.134;8.378;2022-12-11T05:14:59;12.00;;;5.70;;
49235;SDS011;35067;48.134;8.378;2022-12-11T05:16:59;12.53;;;5.77;;
49235;SDS011;35067;48.134;8.378;2022-12-11T05:19:00;11.40;;;5.70;;
49235;SDS011;35067;48.134;8.378;2022-12-11T05:21:02;12.53;;;5.33;;
49235;SDS011;35067;48.134;8.378;2022-12-11T05:23:06;11.07;;;5.50;;
49235;SDS011;35067;48.134;8.378;2022-12-11T05:25:07;12.77;;;5.77;;
49235;SDS011;35067;48.134;8.378;2022-12-11T05:27:08;9.83;;;5.13;;
49235;SDS011;35067;48.134;8.378;2022-12-11T05:29:09;13.40;;;6.07;;
49235;SDS011;35067;48.134;8.378;2022-12-11T05:31:11;12.10;;;6.10;;
49235;SDS011;35067;48.134;8.378;2022-12-11T05:33:15;9.93;;;5.20;;
49235;SDS011;35067;48.134;8.378;2022-12-11T05:35:15;12.70;;;5.90;;
49235;SDS011;35067;48.134;8.378;2022-12-11T05:37:16;13.73;;;6.63;;
49235;SDS011;35067;48.134;8.378;2022-12-11T05:39:17;13.43;;;6.73;;
49235;SDS011;35067;48.134;8.378;2022-12-11T05:41:19;13.13;;;6.13;;
49235;SDS011;35067;48.134;8.378;2022-12-11T05:43:22;14.30;;;6.53;;
49235;SDS011;35067;48.134;8.378;2022-12-11T05:45:23;18.63;;;6.60;;
49235;SDS011;35067;48.134;8.378;2022-12-11T05:47:24;11.23;;;6.13;;
49235;SDS011;35067;48.134;8.378;2022-12-11T05:49:24;16.80;;;5.77;;
49235;SDS011;35067;48.134;8.378;2022-12-11T05:51:26;12.77;;;6.10;;
49235;SDS011;35067;48.134;8.378;2022-12-11T05:53:28;10.90;;;5.50;;
49235;SDS011;35067;48.134;8.378;2022-12-11T05:55:32;12.70;;;6.83;;
49235;SDS011;35067;48.134;8.378;2022-12-11T05:57:34;12.53;;;6.10;;
49235;SDS011;35067;48.134;8.378;2022-12-11T05:59:34;12.07;;;6.23;;
49235;SDS011;35067;48.134;8.378;2022-12-11T06:01:36;10.00;;;4.67;;
49235;SDS011;35067;48.134;8.378;2022-12-11T06:03:40;10.60;;;5.57;;
49235;SDS011;35067;48.134;8.378;2022-12-11T06:05:41;9.83;;;5.17;;
49235;SDS011;35067;48.134;8.378;2022-12-11T06:07:42;7.67;;;3.97;;
49235;SDS011;35067;48.134;8.378;2022-12-11T06:09:43;10.80;;;4.43;;
49235;SDS011;35067;48.134;8.378;2022-12-11T06:11:44;11.50;;;4.63;;
49235;SDS011;35067;48.134;8.378;2022-12-11T06:13:45;7.77;;;4.10;;
49235;SDS011;35067;48.134;8.378;2022-12-11T06:15:46;11.63;;;5.07;;
49235;SDS011;35067;48.134;8.378;2022-12-11T06:17:47;9.63;;;4.17;;
49235;SDS011;35067;48.134;8.378;2022-12-11T06:19:47;12.67;;;5.47;;
49235;SDS011;35067;48.134;8.378;2022-12-11T06:21:48;10.30;;;4.33;;
49235;SDS011;35067;48.134;8.378;2022-12-11T06:23:49;7.90;;;4.03;;
49235;SDS011;35067;48.134;8.378;2022-12-11T06:25:53;9.57;;;4.25;;
49235;SDS011;35067;48.134;8.378;2022-12-11T06:27:54;9.80;;;5.53;;
49235;SDS011;35067;48.134;8.378;2022-12-11T06:29:55;13.53;;;6.33;;
49235;SDS011;35067;48.134;8.378;2022-12-11T06:31:56;15.27;;;7.40;;
49235;SDS011;35067;48.134;8.378;2022-12-11T06:33:56;17.73;;;8.20;;
49235;SDS011;35067;48.134;8.378;2022-12-11T06:36:00;19.37;;;8.80;;
49235;SDS011;35067;48.134;8.378;2022-12-11T06:38:03;14.77;;;7.50;;
49235;SDS011;35067;48.134;8.378;2022-12-11T06:40:04;18.43;;;8.57;;
49235;SDS011;35067;48.134;8.378;2022-12-11T06:42:07;15.73;;;7.40;;
49235;SDS011;35067;48.134;8.378;2022-12-11T06:44:08;15.67;;;7.00;;
49235;SDS011;35067;48.134;8.378;2022-12-11T06:46:13;14.63;;;6.23;;
49235;SDS011;35067;48.134;8.378;2022-12-11T06:48:16;11.75;;;7.18;;
49235;SDS011;35067;48.134;8.378;2022-12-11T06:50:18;12.50;;;7.35;;
49235;SDS011;35067;48.134;8.378;2022-12-11T06:52:19;10.67;;;5.40;;
49235;SDS011;35067;48.134;8.378;2022-12-11T06:54:25;12.63;;;6.25;;
49235;SDS011;35067;48.134;8.378;2022-12-11T06:56:26;9.88;;;5.68;;
49235;SDS011;35067;48.134;8.378;2022-12-11T06:58:27;10.83;;;5.07;;
49235;SDS011;35067;48.134;8.378;2022-12-11T07:00:28;11.37;;;5.97;;
49235;SDS011;35067;48.134;8.378;2022-12-11T07:02:29;11.85;;;5.72;;
49235;SDS011;35067;48.134;8.378;2022-12-11T07:04:30;11.30;;;5.10;;
49235;SDS011;35067;48.134;8.378;2022-12-11T07:06:31;11.25;;;5.97;;
49235;SDS011;35067;48.134;8.378;2022-12-11T07:08:31;14.57;;;6.03;;
49235;SDS011;35067;48.134;8.378;2022-12-11T07:10:32;12.03;;;6.20;;
49235;SDS011;35067;48.134;8.378;2022-12-11T07:12:33;17.77;;;7.27;;
49235;SDS011;35067;48.134;8.378;2022-12-11T07:14:34;15.50;;;6.28;;
49235;SDS011;35067;48.134;8.378;2022-12-11T07:16:35;12.10;;;5.17;;
49235;SDS011;35067;48.134;8.378;2022-12-11T07:18:36;11.63;;;6.03;;
49235;SDS011;35067;48.134;8.378;2022-12-11T07:20:42;10.60;;;5.40;;
49235;SDS011;35067;48.134;8.378;2022-12-11T07:22:43;12.40;;;5.70;;
49235;SDS011;35067;48.134;8.378;2022-12-11T07:24:44;11.70;;;6.27;;
49235;SDS011;35067;48.134;8.378;2022-12-11T07:26:45;13.33;;;6.07;;
49235;SDS011;35067;48.134;8.378;2022-12-11T07:28:45;15.57;;;6.60;;
49235;SDS011;35067;48.134;8.378;2022-12-11T07:30:46;13.43;;;6.75;;
49235;SDS011;35067;48.134;8.378;2022-12-11T07:32:47;13.03;;;7.03;;
49235;SDS011;35067;48.134;8.378;2022-12-11T07:34:48;16.53;;;7.23;;
49235;SDS011;35067;48.134;8.378;2022-12-11T07:36:48;15.97;;;7.23;;
49235;SDS011;35067;48.134;8.378;2022-12-11T07:38:49;18.10;;;10.03;;
49235;SDS011;35067;48.134;8.378;2022-12-11T07:40:50;17.15;;;9.43;;
49235;SDS011;35067;48.134;8.378;2022-12-11T07:42:51;15.87;;;8.93;;
49235;SDS011;35067;48.134;8.378;2022-12-11T07:44:52;14.93;;;7.83;;
49235;SDS011;35067;48.134;8.378;2022-12-11T07:46:52;24.93;;;11.30;;
49235;SDS011;35067;48.134;8.378;2022-12-11T07:48:53;22.53;;;11.67;;
49235;SDS011;35067;48.134;8.378;2022-12-11T07:50:54;26.10;;;13.90;;
49235;SDS011;35067;48.134;8.378;2022-12-11T07:52:54;28.10;;;13.33;;
49235;SDS011;35067;48.134;8.378;2022-12-11T07:54:55;21.87;;;11.20;;
49235;SDS011;35067;48.134;8.378;2022-12-11T07:56:56;21.47;;;10.70;;
49235;SDS011;35067;48.134;8.378;2022-12-11T07:59:00;23.23;;;13.03;;
49235;SDS011;35067;48.134;8.378;2022-12-11T08:01:03;16.70;;;8.67;;
49235;SDS011;35067;48.134;8.378;2022-12-11T08:03:05;17.50;;;8.77;;
49235;SDS011;35067;48.134;8.378;2022-12-11T08:05:06;22.53;;;8.97;;
49235;SDS011;35067;48.134;8.378;2022-12-11T08:07:07;17.60;;;9.77;;
49235;SDS011;35067;48.134;8.378;2022-12-11T08:09:08;16.43;;;8.73;;
49235;SDS011;35067;48.134;8.378;2022-12-11T08:11:12;13.43;;;8.43;;
49235;SDS011;35067;48.134;8.378;2022-12-11T08:13:14;15.27;;;8.53;;
49235;SDS011;35067;48.134;8.378;2022-12-11T08:15:15;18.57;;;9.00;;
49235;SDS011;35067;48.134;8.378;2022-12-11T08:17:15;13.87;;;7.40;;
49235;SDS011;35067;48.134;8.378;2022-12-11T08:19:16;14.10;;;6.50;;
49235;SDS011;35067;48.134;8.378;2022-12-11T08:21:18;13.10;;;7.37;;
49235;SDS011;35067;48.134;8.378;2022-12-11T08:23:22;18.20;;;8.00;;
49235;SDS011;35067;48.134;8.378;2022-12-11T08:25:23;14.53;;;7.63;;
49235;SDS011;35067;48.134;8.378;2022-12-11T08:27:24;21.07;;;9.60;;
49235;SDS011;35067;48.134;8.378;2022-12-11T08:29:25;15.43;;;8.13;;
49235;SDS011;35067;48.134;8.378;2022-12-11T08:31:26;16.40;;;8.23;;
49235;SDS011;35067;48.134;8.378;2022-12-11T08:33:27;14.67;;;7.73;;
49235;SDS011;35067;48.134;8.378;2022-12-11T08:35:28;15.57;;;7.33;;
49235;SDS011;35067;48.134;8.378;2022-12-11T08:37:28;13.13;;;8.23;;
49235;SDS011;35067;48.134;8.378;2022-12-11T08:39:29;13.10;;;7.23;;
49235;SDS011;35067;48.134;8.378;2022-12-11T08:41:30;15.23;;;8.50;;
49235;SDS011;35067;48.134;8.378;2022-12-11T08:43:32;20.63;;;9.67;;
49235;SDS011;35067;48.134;8.378;2022-12-11T08:45:32;17.53;;;9.13;;
49235;SDS011;35067;48.134;8.378;2022-12-11T08:47:33;21.50;;;9.93;;
49235;SDS011;35067;48.134;8.378;2022-12-11T08:49:34;19.83;;;9.73;;
49235;SDS011;35067;48.134;8.378;2022-12-11T08:51:35;18.20;;;8.80;;
49235;SDS011;35067;48.134;8.378;2022-12-11T08:53:36;15.03;;;7.97;;
49235;SDS011;35067;48.134;8.378;2022-12-11T08:55:37;37.00;;;20.63;;
49235;SDS011;35067;48.134;8.378;2022-12-11T08:57:38;27.27;;;14.97;;
49235;SDS011;35067;48.134;8.378;2022-12-11T08:59:39;33.27;;;18.23;;
49235;SDS011;35067;48.134;8.378;2022-12-11T09:01:40;26.37;;;14.97;;
49235;SDS011;35067;48.134;8.378;2022-12-11T09:03:40;30.43;;;14.23;;
49235;SDS011;35067;48.134;8.378;2022-12-11T09:05:41;23.33;;;11.43;;
49235;SDS011;35067;48.134;8.378;2022-12-11T09:07:42;18.00;;;8.30;;
49235;SDS011;35067;48.134;8.378;2022-12-11T09:09:43;15.70;;;7.77;;
49235;SDS011;35067;48.134;8.378;2022-12-11T09:11:43;14.37;;;7.47;;
49235;SDS011;35067;48.134;8.378;2022-12-11T09:13:45;13.10;;;6.63;;
49235;SDS011;35067;48.134;8.378;2022-12-11T09:15:46;11.70;;;7.43;;
49235;SDS011;35067;48.134;8.378;2022-12-11T09:17:47;13.43;;;7.73;;
49235;SDS011;35067;48.134;8.378;2022-12-11T09:19:47;14.73;;;7.50;;
49235;SDS011;35067;48.134;8.378;2022-12-11T09:21:48;11.63;;;6.53;;
49235;SDS011;35067;48.134;8.378;2022-12-11T09:23:51;13.43;;;7.07;;
49235;SDS011;35067;48.134;8.378;2022-12-11T09:25:54;16.87;;;8.43;;
49235;SDS011;35067;48.134;8.378;2022-12-11T09:27:55;13.97;;;7.40;;
49235;SDS011;35067;48.134;8.378;2022-12-11T09:29:55;13.27;;;8.03;;
49235;SDS011;35067;48.134;8.378;2022-12-11T09:31:56;15.63;;;8.43;;
49235;SDS011;35067;48.134;8.378;2022-12-11T09:33:58;94.73;;;14.33;;
49235;SDS011;35067;48.134;8.378;2022-12-11T09:36:03;11.80;;;6.73;;
49235;SDS011;35067;48.134;8.378;2022-12-11T09:38:05;8.50;;;5.63;;
49235;SDS011;35067;48.134;8.378;2022-12-11T09:40:05;14.40;;;8.43;;
49235;SDS011;35067;48.134;8.378;2022-12-11T09:44:49;12.30;;;6.50;;
49235;SDS011;35067;48.134;8.378;2022-12-11T09:46:53;11.13;;;7.47;;
49235;SDS011;35067;48.134;8.378;2022-12-11T09:48:55;9.57;;;5.87;;
49235;SDS011;35067;48.134;8.378;2022-12-11T09:50:56;10.40;;;6.47;;
49235;SDS011;35067;48.134;8.378;2022-12-11T09:55:37;10.40;;;6.70;;
49235;SDS011;35067;48.134;8.378;2022-12-11T09:58:02;8.43;;;5.87;;
49235;SDS011;35067;48.134;8.378;2022-12-11T10:00:21;11.73;;;6.63;;
49235;SDS011;35067;48.134;8.378;2022-12-11T10:04:54;7.80;;;4.97;;
49235;SDS011;35067;48.134;8.378;2022-12-11T10:07:22;8.50;;;5.50;;
49235;SDS011;35067;48.134;8.378;2022-12-11T10:09:58;8.30;;;5.13;;
49235;SDS011;35067;48.134;8.378;2022-12-11T10:14:57;6.97;;;4.50;;
49235;SDS011;35067;48.134;8.378;2022-12-11T10:17:31;6.63;;;4.90;;
49235;SDS011;35067;48.134;8.378;2022-12-11T10:19:34;6.37;;;4.70;;
49235;SDS011;35067;48.134;8.378;2022-12-11T10:21:36;8.20;;;5.50;;
49235;SDS011;35067;48.134;8.378;2022-12-11T10:23:42;6.40;;;4.80;;
49235;SDS011;35067;48.134;8.378;2022-12-11T10:25:52;8.30;;;5.03;;
49235;SDS011;35067;48.134;8.378;2022-12-11T10:28:07;7.47;;;5.50;;
49235;SDS011;35067;48.134;8.378;2022-12-11T10:30:18;7.97;;;5.47;;
49235;SDS011;35067;48.134;8.378;2022-12-11T10:32:42;7.73;;;5.33;;
49235;SDS011;35067;48.134;8.378;2022-12-11T10:34:43;7.40;;;5.10;;
49235;SDS011;35067;48.134;8.378;2022-12-11T10:36:47;43.40;;;8.33;;
49235;SDS011;35067;48.134;8.378;2022-12-11T10:38:48;7.47;;;5.10;;
49235;SDS011;35067;48.134;8.378;2022-12-11T10:40:50;6.57;;;4.60;;
49235;SDS011;35067;48.134;8.378;2022-12-11T10:42:54;6.83;;;4.60;;
49235;SDS011;35067;48.134;8.378;2022-12-11T10:44:56;6.57;;;4.73;;
49235;SDS011;35067;48.134;8.378;2022-12-11T10:47:04;9.20;;;6.73;;
49235;SDS011;35067;48.134;8.378;2022-12-11T10:49:23;8.57;;;5.80;;
49235;SDS011;35067;48.134;8.378;2022-12-11T10:53:30;12.63;;;6.70;;
49235;SDS011;35067;48.134;8.378;2022-12-11T10:55:43;10.03;;;5.63;;
49235;SDS011;35067;48.134;8.378;2022-12-11T10:57:44;3.10;;;1.90;;
49235;SDS011;35067;48.134;8.378;2022-12-11T10:59:54;3.17;;;1.30;;
49235;SDS011;35067;48.134;8.378;2022-12-11T11:01:56;5.83;;;3.70;;
49235;SDS011;35067;48.134;8.378;2022-12-11T11:06:15;5.50;;;3.73;;
49235;SDS011;35067;48.134;8.378;2022-12-11T11:08:20;5.07;;;3.20;;
49235;SDS011;35067;48.134;8.378;2022-12-11T11:10:21;7.40;;;4.03;;
49235;SDS011;35067;48.134;8.378;2022-12-11T11:12:26;2.63;;;1.90;;
49235;SDS011;35067;48.134;8.378;2022-12-11T11:14:27;2.13;;;1.40;;
49235;SDS011;35067;48.134;8.378;2022-12-11T11:16:28;4.70;;;2.20;;
49235;SDS011;35067;48.134;8.378;2022-12-11T11:18:29;3.63;;;2.30;;
49235;SDS011;35067;48.134;8.378;2022-12-11T11:20:32;3.60;;;2.40;;
49235;SDS011;35067;48.134;8.378;2022-12-11T11:22:36;3.40;;;2.80;;
49235;SDS011;35067;48.134;8.378;2022-12-11T11:24:53;1.43;;;1.30;;
49235;SDS011;35067;48.134;8.378;2022-12-11T11:26:56;1.73;;;1.30;;
49235;SDS011;35067;48.134;8.378;2022-12-11T11:28:57;2.93;;;1.20;;
49235;SDS011;35067;48.134;8.378;2022-12-11T11:30:59;1.67;;;1.10;;
49235;SDS011;35067;48.134;8.378;2022-12-11T11:33:17;1.93;;;1.63;;
49235;SDS011;35067;48.134;8.378;2022-12-11T11:35:21;2.03;;;1.60;;
49235;SDS011;35067;48.134;8.378;2022-12-11T11:37:30;1.37;;;1.00;;
49235;SDS011;35067;48.134;8.378;2022-12-11T11:39:36;1.73;;;0.93;;
49235;SDS011;35067;48.134;8.378;2022-12-11T11:42:05;1.03;;;0.90;;
49235;SDS011;35067;48.134;8.378;2022-12-11T11:44:15;1.80;;;0.80;;
49235;SDS011;35067;48.134;8.378;2022-12-11T11:46:33;1.53;;;1.20;;
49235;SDS011;35067;48.134;8.378;2022-12-11T11:49:02;2.23;;;1.00;;
49235;SDS011;35067;48.134;8.378;2022-12-11T11:54:32;1.43;;;1.10;;
49235;SDS011;35067;48.134;8.378;2022-12-11T11:56:36;2.03;;;1.30;;
49235;SDS011;35067;48.134;8.378;2022-12-11T11:58:38;2.27;;;1.30;;
49235;SDS011;35067;48.134;8.378;2022-12-11T12:00:44;1.37;;;1.00;;
49235;SDS011;35067;48.134;8.378;2022-12-11T12:02:50;1.20;;;1.10;;
49235;SDS011;35067;48.134;8.378;2022-12-11T12:05:03;1.53;;;1.20;;
49235;SDS011;35067;48.134;8.378;2022-12-11T12:07:23;0.80;;;0.80;;
49235;SDS011;35067;48.134;8.378;2022-12-11T12:10:17;1.70;;;1.20;;
49235;SDS011;35067;48.134;8.378;2022-12-11T12:17:17;1.50;;;1.20;;
49235;SDS011;35067;48.134;8.378;2022-12-11T12:24:38;2.63;;;1.97;;
49235;SDS011;35067;48.134;8.378;2022-12-11T12:27:20;4.03;;;1.70;;
49235;SDS011;35067;48.134;8.378;2022-12-11T12:29:46;1.90;;;1.60;;
49235;SDS011;35067;48.134;8.378;2022-12-11T12:37:08;3.30;;;1.93;;
49235;SDS011;35067;48.134;8.378;2022-12-11T12:40:13;2.67;;;1.80;;
49235;SDS011;35067;48.134;8.378;2022-12-11T12:44:43;3.37;;;1.90;;
49235;SDS011;35067;48.134;8.378;2022-12-11T12:46:59;3.10;;;2.03;;
49235;SDS011;35067;48.134;8.378;2022-12-11T12:49:11;2.97;;;1.90;;
49235;SDS011;35067;48.134;8.378;2022-12-11T12:51:29;5.07;;;1.87;;
49235;SDS011;35067;48.134;8.378;2022-12-11T12:53:30;2.80;;;1.80;;
49235;SDS011;35067;48.134;8.378;2022-12-11T12:55:34;2.00;;;1.50;;
49235;SDS011;35067;48.134;8.378;2022-12-11T12:57:35;2.50;;;1.93;;
49235;SDS011;35067;48.134;8.378;2022-12-11T12:59:37;3.93;;;1.90;;
49235;SDS011;35067;48.134;8.378;2022-12-11T13:01:37;3.90;;;2.23;;
49235;SDS011;35067;48.134;8.378;2022-12-11T13:03:58;2.73;;;1.60;;
49235;SDS011;35067;48.134;8.378;2022-12-11T13:06:04;1.90;;;1.50;;
49235;SDS011;35067;48.134;8.378;2022-12-11T13:08:07;3.23;;;1.90;;
49235;SDS011;35067;48.134;8.378;2022-12-11T13:10:25;2.80;;;1.77;;
49235;SDS011;35067;48.134;8.378;2022-12-11T13:12:38;2.10;;;1.20;;
49235;SDS011;35067;48.134;8.378;2022-12-11T13:14:43;1.90;;;1.20;;